sensor_id;sensor_type;location;lat;lon;timestamp;pressure;altitude;pressure_sealevel;temperature;humidity
72066;BME280;59939;52.516;13.420;2022-08-14T00:00:21;100524.31;;;23.17;59.34
72066;BME280;59939;52.516;13.420;2022-08-14T00:03:29;100524.75;;;23.37;58.70
72066;BME280;59939;52.516;13.420;2022-08-14T00:06:38;100516.72;;;23.10;59.24
72066;BME280;59939;52.516;13.420;2022-08-14T00:09:44;100526.69;;;23.01;59.73
72066;BME280;59939;52.516;13.420;2022-08-14T00:12:53;100524.28;;;22.99;59.98
72066;BME280;59939;52.516;13.420;2022-08-14T00:16:11;100522.25;;;22.86;60.62
72066;BME280;59939;52.516;13.420;2022-08-14T00:19:19;100524.56;;;22.69;60.98
72066;BME280;59939;52.516;13.420;2022-08-14T00:22:23;100516.59;;;22.71;61.08
72066;BME280;59939;52.516;13.420;2022-08-14T00:25:30;100521.78;;;22.69;61.37
72066;BME280;59939;52.516;13.420;2022-08-14T00:28:34;100521.06;;;22.94;60.23
72066;BME280;59939;52.516;13.420;2022-08-14T00:31:39;100521.38;;;22.74;61.00
72066;BME280;59939;52.516;13.420;2022-08-14T00:34:43;100519.00;;;22.76;60.98
72066;BME280;59939;52.516;13.420;2022-08-14T00:37:47;100515.09;;;22.99;60.13
72066;BME280;59939;52.516;13.420;2022-08-14T00:40:54;100519.78;;;22.70;61.22
72066;BME280;59939;52.516;13.420;2022-08-14T00:44:00;100515.78;;;22.67;61.56
72066;BME280;59939;52.516;13.420;2022-08-14T00:47:06;100506.16;;;22.61;61.71
72066;BME280;59939;52.516;13.420;2022-08-14T00:50:20;100511.38;;;22.66;61.40
72066;BME280;59939;52.516;13.420;2022-08-14T00:53:25;100514.59;;;22.72;61.52
72066;BME280;59939;52.516;13.420;2022-08-14T00:56:30;100509.31;;;22.53;62.12
72066;BME280;59939;52.516;13.420;2022-08-14T00:59:34;100498.88;;;22.39;62.47
72066;BME280;59939;52.516;13.420;2022-08-14T01:02:41;100490.50;;;22.42;62.29
72066;BME280;59939;52.516;13.420;2022-08-14T01:05:49;100493.78;;;22.62;61.74
72066;BME280;59939;52.516;13.420;2022-08-14T01:08:54;100500.59;;;22.68;61.53
72066;BME280;59939;52.516;13.420;2022-08-14T01:11:59;100489.41;;;22.72;61.35
72066;BME280;59939;52.516;13.420;2022-08-14T01:15:17;100488.63;;;22.71;61.66
72066;BME280;59939;52.516;13.420;2022-08-14T01:18:26;100490.53;;;22.50;62.21
72066;BME280;59939;52.516;13.420;2022-08-14T01:21:50;100481.25;;;22.28;63.12
72066;BME280;59939;52.516;13.420;2022-08-14T01:25:07;100489.16;;;22.11;63.86
72066;BME280;59939;52.516;13.420;2022-08-14T01:28:16;100482.41;;;22.16;63.56
72066;BME280;59939;52.516;13.420;2022-08-14T01:31:24;100484.47;;;22.30;63.38
72066;BME280;59939;52.516;13.420;2022-08-14T01:34:29;100484.53;;;22.44;62.87
72066;BME280;59939;52.516;13.420;2022-08-14T01:37:34;100490.06;;;22.33;63.47
72066;BME280;59939;52.516;13.420;2022-08-14T01:40:40;100487.38;;;22.62;62.17
72066;BME280;59939;52.516;13.420;2022-08-14T01:43:49;100487.81;;;22.74;61.79
72066;BME280;59939;52.516;13.420;2022-08-14T01:46:54;100485.34;;;22.48;62.79
72066;BME280;59939;52.516;13.420;2022-08-14T01:49:59;100493.91;;;22.98;61.16
72066;BME280;59939;52.516;13.420;2022-08-14T01:53:03;100495.13;;;23.15;60.45
72066;BME280;59939;52.516;13.420;2022-08-14T01:56:08;100495.94;;;23.19;60.10
72066;BME280;59939;52.516;13.420;2022-08-14T01:59:24;100498.31;;;22.99;60.86
72066;BME280;59939;52.516;13.420;2022-08-14T02:02:32;100494.28;;;22.86;61.22
72066;BME280;59939;52.516;13.420;2022-08-14T02:05:38;100493.91;;;22.98;60.87
72066;BME280;59939;52.516;13.420;2022-08-14T02:08:42;100484.69;;;22.90;60.93
72066;BME280;59939;52.516;13.420;2022-08-14T02:11:49;100481.94;;;23.08;60.44
72066;BME280;59939;52.516;13.420;2022-08-14T02:14:53;100485.16;;;23.24;60.11
72066;BME280;59939;52.516;13.420;2022-08-14T02:17:58;100483.94;;;23.15;60.22
72066;BME280;59939;52.516;13.420;2022-08-14T02:21:09;100488.75;;;23.35;59.71
72066;BME280;59939;52.516;13.420;2022-08-14T02:24:19;100479.50;;;22.89;61.50
72066;BME280;59939;52.516;13.420;2022-08-14T02:27:24;100479.13;;;23.01;61.16
72066;BME280;59939;52.516;13.420;2022-08-14T02:30:29;100476.69;;;22.82;61.89
72066;BME280;59939;52.516;13.420;2022-08-14T02:33:34;100482.31;;;22.96;61.49
72066;BME280;59939;52.516;13.420;2022-08-14T02:36:40;100477.38;;;22.57;62.70
72066;BME280;59939;52.516;13.420;2022-08-14T02:39:45;100458.25;;;22.70;62.22
72066;BME280;59939;52.516;13.420;2022-08-14T02:42:52;100462.31;;;22.87;61.79
72066;BME280;59939;52.516;13.420;2022-08-14T02:45:58;100457.53;;;22.87;62.01
72066;BME280;59939;52.516;13.420;2022-08-14T02:49:03;100458.31;;;22.88;61.88
72066;BME280;59939;52.516;13.420;2022-08-14T02:52:09;100455.16;;;23.14;60.67
72066;BME280;59939;52.516;13.420;2022-08-14T02:55:20;100454.28;;;22.78;61.91
72066;BME280;59939;52.516;13.420;2022-08-14T02:58:25;100447.94;;;22.88;61.96
72066;BME280;59939;52.516;13.420;2022-08-14T03:01:30;100449.53;;;22.86;62.16
72066;BME280;59939;52.516;13.420;2022-08-14T03:04:35;100443.88;;;22.75;62.57
72066;BME280;59939;52.516;13.420;2022-08-14T03:07:39;100446.34;;;23.12;61.17
72066;BME280;59939;52.516;13.420;2022-08-14T03:10:44;100439.56;;;23.24;60.73
72066;BME280;59939;52.516;13.420;2022-08-14T03:13:53;100441.94;;;23.04;61.52
72066;BME280;59939;52.516;13.420;2022-08-14T03:16:57;100444.66;;;22.68;62.60
72066;BME280;59939;52.516;13.420;2022-08-14T03:20:04;100431.16;;;23.13;61.09
72066;BME280;59939;52.516;13.420;2022-08-14T03:23:13;100437.56;;;23.31;60.36
72066;BME280;59939;52.516;13.420;2022-08-14T03:26:19;100447.16;;;23.27;60.87
72066;BME280;59939;52.516;13.420;2022-08-14T03:29:24;100446.75;;;23.07;61.46
72066;BME280;59939;52.516;13.420;2022-08-14T03:32:32;100441.97;;;23.11;61.13
72066;BME280;59939;52.516;13.420;2022-08-14T03:35:39;100447.13;;;22.88;62.09
72066;BME280;59939;52.516;13.420;2022-08-14T03:38:46;100444.75;;;23.18;61.07
72066;BME280;59939;52.516;13.420;2022-08-14T03:42:06;100439.53;;;23.56;59.85
72066;BME280;59939;52.516;13.420;2022-08-14T03:45:10;100437.91;;;23.80;58.97
72066;BME280;59939;52.516;13.420;2022-08-14T03:48:17;100443.16;;;23.31;60.36
72066;BME280;59939;52.516;13.420;2022-08-14T03:51:26;100441.56;;;23.34;60.41
72066;BME280;59939;52.516;13.420;2022-08-14T03:54:32;100448.75;;;23.21;61.02
72066;BME280;59939;52.516;13.420;2022-08-14T03:57:39;100440.75;;;23.26;60.78
72066;BME280;59939;52.516;13.420;2022-08-14T04:00:44;100443.06;;;22.74;62.49
72066;BME280;59939;52.516;13.420;2022-08-14T04:03:50;100434.63;;;22.53;63.18
72066;BME280;59939;52.516;13.420;2022-08-14T04:06:55;100433.41;;;22.47;63.56
72066;BME280;59939;52.516;13.420;2022-08-14T04:09:59;100418.84;;;21.99;65.35
72066;BME280;59939;52.516;13.420;2022-08-14T04:13:04;100415.00;;;22.32;64.51
72066;BME280;59939;52.516;13.420;2022-08-14T04:16:20;100424.66;;;22.56;63.36
72066;BME280;59939;52.516;13.420;2022-08-14T04:19:26;100410.34;;;22.86;62.35
72066;BME280;59939;52.516;13.420;2022-08-14T04:22:33;100417.91;;;22.67;63.28
72066;BME280;59939;52.516;13.420;2022-08-14T04:25:38;100428.31;;;22.77;62.76
72066;BME280;59939;52.516;13.420;2022-08-14T04:28:43;100421.47;;;22.61;63.37
72066;BME280;59939;52.516;13.420;2022-08-14T04:31:47;100423.09;;;22.69;63.19
72066;BME280;59939;52.516;13.420;2022-08-14T04:34:56;100422.38;;;23.04;61.85
72066;BME280;59939;52.516;13.420;2022-08-14T04:38:14;100422.72;;;23.59;59.95
72066;BME280;59939;52.516;13.420;2022-08-14T04:41:37;100416.75;;;23.39;60.55
72066;BME280;59939;52.516;13.420;2022-08-14T04:45:00;100427.16;;;23.35;60.59
72066;BME280;59939;52.516;13.420;2022-08-14T04:48:25;100429.56;;;23.33;60.92
72066;BME280;59939;52.516;13.420;2022-08-14T04:51:30;100423.16;;;23.22;61.11
72066;BME280;59939;52.516;13.420;2022-08-14T04:54:36;100416.34;;;22.81;62.50
72066;BME280;59939;52.516;13.420;2022-08-14T04:57:40;100419.16;;;23.20;61.44
72066;BME280;59939;52.516;13.420;2022-08-14T05:00:47;100423.56;;;23.17;61.44
72066;BME280;59939;52.516;13.420;2022-08-14T05:03:54;100431.16;;;23.27;61.27
72066;BME280;59939;52.516;13.420;2022-08-14T05:06:58;100418.78;;;23.21;61.41
72066;BME280;59939;52.516;13.420;2022-08-14T05:10:05;100415.91;;;23.42;60.79
72066;BME280;59939;52.516;13.420;2022-08-14T05:13:09;100419.88;;;23.77;59.34
72066;BME280;59939;52.516;13.420;2022-08-14T05:16:14;100412.47;;;24.40;57.65
72066;BME280;59939;52.516;13.420;2022-08-14T05:19:22;100413.97;;;24.59;56.95
72066;BME280;59939;52.516;13.420;2022-08-14T05:22:30;100405.03;;;24.71;56.58
72066;BME280;59939;52.516;13.420;2022-08-14T05:25:35;100405.31;;;24.32;57.38
72066;BME280;59939;52.516;13.420;2022-08-14T05:28:41;100408.72;;;23.41;60.73
72066;BME280;59939;52.516;13.420;2022-08-14T05:31:56;100403.41;;;24.77;56.02
72066;BME280;59939;52.516;13.420;2022-08-14T05:35:02;100395.75;;;25.33;54.03
72066;BME280;59939;52.516;13.420;2022-08-14T05:38:08;100393.69;;;24.89;54.67
72066;BME280;59939;52.516;13.420;2022-08-14T05:41:17;100382.25;;;25.17;54.48
72066;BME280;59939;52.516;13.420;2022-08-14T05:44:21;100376.34;;;25.87;52.13
72066;BME280;59939;52.516;13.420;2022-08-14T05:47:28;100362.75;;;26.12;51.41
72066;BME280;59939;52.516;13.420;2022-08-14T05:50:34;100367.84;;;26.21;50.97
72066;BME280;59939;52.516;13.420;2022-08-14T05:53:38;100374.53;;;25.70;52.38
72066;BME280;59939;52.516;13.420;2022-08-14T05:56:42;100390.09;;;25.78;52.37
72066;BME280;59939;52.516;13.420;2022-08-14T05:59:49;100382.00;;;25.83;52.39
72066;BME280;59939;52.516;13.420;2022-08-14T06:02:54;100375.56;;;26.13;51.60
72066;BME280;59939;52.516;13.420;2022-08-14T06:06:01;100384.84;;;26.10;51.40
72066;BME280;59939;52.516;13.420;2022-08-14T06:09:07;100385.78;;;26.34;51.00
72066;BME280;59939;52.516;13.420;2022-08-14T06:12:13;100387.91;;;27.07;48.87
72066;BME280;59939;52.516;13.420;2022-08-14T06:15:43;100383.25;;;25.79;52.64
72066;BME280;59939;52.516;13.420;2022-08-14T06:18:48;100379.44;;;25.96;52.47
72066;BME280;59939;52.516;13.420;2022-08-14T06:21:54;100374.72;;;25.48;52.84
72066;BME280;59939;52.516;13.420;2022-08-14T06:24:59;100379.34;;;26.33;51.00
72066;BME280;59939;52.516;13.420;2022-08-14T06:28:04;100357.97;;;26.67;49.80
72066;BME280;59939;52.516;13.420;2022-08-14T06:31:08;100357.34;;;25.98;51.96
72066;BME280;59939;52.516;13.420;2022-08-14T06:34:14;100345.84;;;26.70;49.74
72066;BME280;59939;52.516;13.420;2022-08-14T06:37:20;100361.22;;;27.15;48.41
72066;BME280;59939;52.516;13.420;2022-08-14T06:40:36;100356.88;;;26.30;50.71
72066;BME280;59939;52.516;13.420;2022-08-14T06:43:48;100361.66;;;26.87;49.56
72066;BME280;59939;52.516;13.420;2022-08-14T06:47:06;100361.81;;;27.26;48.15
72066;BME280;59939;52.516;13.420;2022-08-14T06:50:15;100361.78;;;26.80;49.23
72066;BME280;59939;52.516;13.420;2022-08-14T06:53:27;100370.53;;;26.85;49.45
72066;BME280;59939;52.516;13.420;2022-08-14T06:56:39;100363.66;;;27.13;48.40
72066;BME280;59939;52.516;13.420;2022-08-14T06:59:43;100362.03;;;27.99;46.04
72066;BME280;59939;52.516;13.420;2022-08-14T07:02:50;100362.03;;;27.36;47.57
72066;BME280;59939;52.516;13.420;2022-08-14T07:06:14;100361.81;;;27.46;47.63
72066;BME280;59939;52.516;13.420;2022-08-14T07:09:19;100349.38;;;28.43;45.02
72066;BME280;59939;52.516;13.420;2022-08-14T07:12:24;100339.41;;;28.71;43.88
72066;BME280;59939;52.516;13.420;2022-08-14T07:15:29;100338.94;;;28.04;44.76
72066;BME280;59939;52.516;13.420;2022-08-14T07:18:41;100336.91;;;28.24;44.78
72066;BME280;59939;52.516;13.420;2022-08-14T07:21:47;100339.94;;;28.82;43.68
72066;BME280;59939;52.516;13.420;2022-08-14T07:24:54;100329.22;;;29.54;41.80
72066;BME280;59939;52.516;13.420;2022-08-14T07:27:59;100334.09;;;29.38;42.54
72066;BME280;59939;52.516;13.420;2022-08-14T07:31:06;100328.00;;;30.35;40.02
72066;BME280;59939;52.516;13.420;2022-08-14T07:34:11;100331.22;;;29.96;39.73
72066;BME280;59939;52.516;13.420;2022-08-14T07:37:15;100329.16;;;30.38;39.71
72066;BME280;59939;52.516;13.420;2022-08-14T07:40:19;100321.38;;;31.71;36.49
72066;BME280;59939;52.516;13.420;2022-08-14T07:43:24;100321.50;;;33.19;33.36
72066;BME280;59939;52.516;13.420;2022-08-14T07:46:29;100309.19;;;33.67;32.56
72066;BME280;59939;52.516;13.420;2022-08-14T07:49:34;100309.03;;;34.31;30.45
72066;BME280;59939;52.516;13.420;2022-08-14T07:52:38;100299.25;;;35.67;28.03
72066;BME280;59939;52.516;13.420;2022-08-14T07:55:43;100299.22;;;34.65;29.62
72066;BME280;59939;52.516;13.420;2022-08-14T07:58:49;100298.13;;;34.21;30.16
72066;BME280;59939;52.516;13.420;2022-08-14T08:01:53;100309.81;;;33.07;32.26
72066;BME280;59939;52.516;13.420;2022-08-14T08:05:08;100300.16;;;33.78;31.05
72066;BME280;59939;52.516;13.420;2022-08-14T08:08:15;100286.88;;;33.75;31.00
72066;BME280;59939;52.516;13.420;2022-08-14T08:11:19;100294.16;;;34.27;30.34
72066;BME280;59939;52.516;13.420;2022-08-14T08:14:25;100302.53;;;33.70;31.21
72066;BME280;59939;52.516;13.420;2022-08-14T08:17:36;100298.66;;;34.10;30.73
72066;BME280;59939;52.516;13.420;2022-08-14T08:20:50;100293.88;;;33.47;31.50
72066;BME280;59939;52.516;13.420;2022-08-14T08:23:55;100290.34;;;31.98;34.04
72066;BME280;59939;52.516;13.420;2022-08-14T08:27:13;100287.69;;;32.93;32.76
72066;BME280;59939;52.516;13.420;2022-08-14T08:30:19;100282.22;;;34.05;30.57
72066;BME280;59939;52.516;13.420;2022-08-14T08:33:33;100292.75;;;33.17;31.98
72066;BME280;59939;52.516;13.420;2022-08-14T08:36:39;100276.66;;;33.50;31.20
72066;BME280;59939;52.516;13.420;2022-08-14T08:39:46;100288.31;;;35.50;28.33
72066;BME280;59939;52.516;13.420;2022-08-14T08:42:51;100276.22;;;36.14;27.38
72066;BME280;59939;52.516;13.420;2022-08-14T08:46:07;100275.03;;;36.21;27.61
72066;BME280;59939;52.516;13.420;2022-08-14T08:49:44;100262.13;;;35.52;28.06
72066;BME280;59939;52.516;13.420;2022-08-14T08:52:52;100258.28;;;34.78;29.18
72066;BME280;59939;52.516;13.420;2022-08-14T08:56:02;100256.41;;;34.51;29.78
72066;BME280;59939;52.516;13.420;2022-08-14T08:59:27;100253.41;;;34.12;30.46
72066;BME280;59939;52.516;13.420;2022-08-14T09:02:36;100250.34;;;34.25;30.18
72066;BME280;59939;52.516;13.420;2022-08-14T09:08:57;100253.19;;;32.55;32.73
72066;BME280;59939;52.516;13.420;2022-08-14T09:12:01;100248.19;;;33.68;31.07
72066;BME280;59939;52.516;13.420;2022-08-14T09:15:10;100243.50;;;34.41;29.47
72066;BME280;59939;52.516;13.420;2022-08-14T09:18:16;100236.44;;;35.37;27.66
72066;BME280;59939;52.516;13.420;2022-08-14T09:21:21;100236.59;;;35.19;28.13
72066;BME280;59939;52.516;13.420;2022-08-14T09:24:26;100229.41;;;35.23;26.98
72066;BME280;59939;52.516;13.420;2022-08-14T09:27:36;100224.88;;;34.78;27.92
72066;BME280;59939;52.516;13.420;2022-08-14T09:30:44;100216.44;;;34.03;29.08
72066;BME280;59939;52.516;13.420;2022-08-14T09:33:59;100225.94;;;34.90;27.07
72066;BME280;59939;52.516;13.420;2022-08-14T09:37:33;100226.13;;;34.86;27.17
72066;BME280;59939;52.516;13.420;2022-08-14T09:41:22;100219.69;;;34.20;28.06
72066;BME280;59939;52.516;13.420;2022-08-14T09:45:12;100215.34;;;34.33;27.83
72066;BME280;59939;52.516;13.420;2022-08-14T09:48:21;100215.19;;;33.44;29.20
72066;BME280;59939;52.516;13.420;2022-08-14T09:51:28;100207.47;;;33.44;29.24
72066;BME280;59939;52.516;13.420;2022-08-14T09:54:40;100206.84;;;34.24;28.17
72066;BME280;59939;52.516;13.420;2022-08-14T09:58:16;100202.72;;;33.50;29.21
72066;BME280;59939;52.516;13.420;2022-08-14T10:01:21;100200.88;;;34.70;27.35
72066;BME280;59939;52.516;13.420;2022-08-14T10:04:28;100188.88;;;36.83;24.13
72066;BME280;59939;52.516;13.420;2022-08-14T10:07:46;100182.88;;;34.07;27.41
72066;BME280;59939;52.516;13.420;2022-08-14T10:10:57;100178.38;;;34.24;27.38
72066;BME280;59939;52.516;13.420;2022-08-14T10:14:18;100189.22;;;35.80;25.83
72066;BME280;59939;52.516;13.420;2022-08-14T10:17:24;100174.44;;;35.23;26.29
72066;BME280;59939;52.516;13.420;2022-08-14T10:20:35;100172.06;;;35.95;24.99
72066;BME280;59939;52.516;13.420;2022-08-14T10:23:46;100165.63;;;35.50;24.92
72066;BME280;59939;52.516;13.420;2022-08-14T10:26:54;100164.84;;;36.55;24.01
72066;BME280;59939;52.516;13.420;2022-08-14T10:30:14;100151.84;;;36.74;23.18
72066;BME280;59939;52.516;13.420;2022-08-14T10:33:29;100147.81;;;36.40;24.38
72066;BME280;59939;52.516;13.420;2022-08-14T10:36:37;100154.50;;;37.24;23.38
72066;BME280;59939;52.516;13.420;2022-08-14T10:40:00;100145.91;;;35.82;23.97
72066;BME280;59939;52.516;13.420;2022-08-14T10:43:23;100134.13;;;35.01;25.06
72066;BME280;59939;52.516;13.420;2022-08-14T10:49:59;100112.56;;;37.47;22.35
72066;BME280;59939;52.516;13.420;2022-08-14T10:53:06;100110.25;;;39.52;20.27
72066;BME280;59939;52.516;13.420;2022-08-14T10:56:12;100105.88;;;38.52;21.12
72066;BME280;59939;52.516;13.420;2022-08-14T10:59:27;100104.34;;;36.77;22.84
72066;BME280;59939;52.516;13.420;2022-08-14T11:02:33;100093.28;;;37.16;22.19
72066;BME280;59939;52.516;13.420;2022-08-14T11:05:49;100099.25;;;37.81;21.19
72066;BME280;59939;52.516;13.420;2022-08-14T11:08:56;100098.09;;;37.04;22.24
72066;BME280;59939;52.516;13.420;2022-08-14T11:12:08;100095.81;;;36.82;23.29
72066;BME280;59939;52.516;13.420;2022-08-14T11:15:18;100095.94;;;36.94;22.94
72066;BME280;59939;52.516;13.420;2022-08-14T11:18:22;100095.03;;;37.08;22.97
72066;BME280;59939;52.516;13.420;2022-08-14T11:21:28;100097.84;;;37.28;22.52
72066;BME280;59939;52.516;13.420;2022-08-14T11:24:32;100097.09;;;35.65;24.63
72066;BME280;59939;52.516;13.420;2022-08-14T11:27:43;100093.34;;;36.96;22.85
72066;BME280;59939;52.516;13.420;2022-08-14T11:30:52;100097.41;;;37.41;22.58
72066;BME280;59939;52.516;13.420;2022-08-14T11:33:59;100092.34;;;35.42;24.36
72066;BME280;59939;52.516;13.420;2022-08-14T11:37:08;100095.00;;;34.86;25.11
72066;BME280;59939;52.516;13.420;2022-08-14T11:40:15;100088.25;;;36.33;23.36
72066;BME280;59939;52.516;13.420;2022-08-14T11:43:19;100085.28;;;36.48;22.44
72066;BME280;59939;52.516;13.420;2022-08-14T11:46:23;100102.81;;;36.61;22.10
72066;BME280;59939;52.516;13.420;2022-08-14T11:49:27;100091.59;;;36.32;21.88
72066;BME280;59939;52.516;13.420;2022-08-14T11:52:34;100089.84;;;34.13;24.92
72066;BME280;59939;52.516;13.420;2022-08-14T11:55:42;100077.84;;;35.60;23.62
72066;BME280;59939;52.516;13.420;2022-08-14T11:58:51;100076.91;;;36.44;23.27
72066;BME280;59939;52.516;13.420;2022-08-14T12:01:55;100074.53;;;36.37;23.31
72066;BME280;59939;52.516;13.420;2022-08-14T12:05:01;100057.75;;;36.50;22.66
72066;BME280;59939;52.516;13.420;2022-08-14T12:08:05;100066.88;;;37.01;22.03
72066;BME280;59939;52.516;13.420;2022-08-14T12:11:14;100057.44;;;34.88;24.43
72066;BME280;59939;52.516;13.420;2022-08-14T12:14:18;100055.66;;;37.23;22.03
72066;BME280;59939;52.516;13.420;2022-08-14T12:17:27;100048.34;;;36.70;22.63
72066;BME280;59939;52.516;13.420;2022-08-14T12:20:34;100052.09;;;36.10;23.90
72066;BME280;59939;52.516;13.420;2022-08-14T12:23:43;100043.53;;;37.08;22.54
72066;BME280;59939;52.516;13.420;2022-08-14T12:26:55;100030.38;;;38.77;20.25
72066;BME280;59939;52.516;13.420;2022-08-14T12:30:02;100026.19;;;39.57;19.12
72066;BME280;59939;52.516;13.420;2022-08-14T12:33:31;100022.63;;;37.59;21.20
72066;BME280;59939;52.516;13.420;2022-08-14T12:36:41;100015.25;;;37.95;21.14
72066;BME280;59939;52.516;13.420;2022-08-14T12:39:46;100015.56;;;35.58;23.60
72066;BME280;59939;52.516;13.420;2022-08-14T12:42:58;100013.41;;;34.89;24.87
72066;BME280;59939;52.516;13.420;2022-08-14T12:46:19;99994.97;;;36.82;22.57
72066;BME280;59939;52.516;13.420;2022-08-14T12:49:24;100003.19;;;36.02;23.15
72066;BME280;59939;52.516;13.420;2022-08-14T12:52:32;99996.53;;;33.03;26.88
72066;BME280;59939;52.516;13.420;2022-08-14T12:55:42;99998.09;;;32.44;27.48
72066;BME280;59939;52.516;13.420;2022-08-14T12:58:56;99988.78;;;32.43;27.33
72066;BME280;59939;52.516;13.420;2022-08-14T13:02:01;99982.06;;;33.58;26.49
72066;BME280;59939;52.516;13.420;2022-08-14T13:05:13;99984.41;;;35.40;23.85
72066;BME280;59939;52.516;13.420;2022-08-14T13:08:20;99988.38;;;33.29;26.18
72066;BME280;59939;52.516;13.420;2022-08-14T13:11:28;99980.34;;;35.12;23.79
72066;BME280;59939;52.516;13.420;2022-08-14T13:14:36;99971.34;;;36.61;21.67
72066;BME280;59939;52.516;13.420;2022-08-14T13:17:43;99963.97;;;36.49;22.07
72066;BME280;59939;52.516;13.420;2022-08-14T13:20:50;99948.00;;;37.68;21.09
72066;BME280;59939;52.516;13.420;2022-08-14T13:23:58;99945.84;;;36.83;21.83
72066;BME280;59939;52.516;13.420;2022-08-14T13:27:08;99932.56;;;38.36;20.18
72066;BME280;59939;52.516;13.420;2022-08-14T13:30:17;99933.31;;;37.12;21.34
72066;BME280;59939;52.516;13.420;2022-08-14T13:33:23;99924.75;;;36.75;22.14
72066;BME280;59939;52.516;13.420;2022-08-14T13:36:28;99926.09;;;36.02;23.16
72066;BME280;59939;52.516;13.420;2022-08-14T13:39:32;99916.56;;;35.85;22.29
72066;BME280;59939;52.516;13.420;2022-08-14T13:42:43;99913.63;;;37.20;20.88
72066;BME280;59939;52.516;13.420;2022-08-14T13:45:49;99903.41;;;35.73;22.37
72066;BME280;59939;52.516;13.420;2022-08-14T13:48:53;99908.13;;;35.35;22.53
72066;BME280;59939;52.516;13.420;2022-08-14T13:52:00;99903.41;;;35.73;22.22
72066;BME280;59939;52.516;13.420;2022-08-14T13:55:08;99899.16;;;36.66;21.02
72066;BME280;59939;52.516;13.420;2022-08-14T13:58:13;99883.22;;;37.22;20.31
72066;BME280;59939;52.516;13.420;2022-08-14T14:01:19;99883.03;;;36.63;20.75
72066;BME280;59939;52.516;13.420;2022-08-14T14:04:27;99881.47;;;36.94;20.35
72066;BME280;59939;52.516;13.420;2022-08-14T14:07:37;99879.84;;;36.24;20.38
72066;BME280;59939;52.516;13.420;2022-08-14T14:10:42;99864.97;;;37.68;19.29
72066;BME280;59939;52.516;13.420;2022-08-14T14:13:49;99855.66;;;35.93;21.48
72066;BME280;59939;52.516;13.420;2022-08-14T14:17:01;99865.53;;;34.61;22.96
72066;BME280;59939;52.516;13.420;2022-08-14T14:20:08;99856.59;;;35.24;22.25
72066;BME280;59939;52.516;13.420;2022-08-14T14:23:16;99845.03;;;35.94;21.39
72066;BME280;59939;52.516;13.420;2022-08-14T14:26:20;99837.00;;;36.24;20.40
72066;BME280;59939;52.516;13.420;2022-08-14T14:29:28;99841.06;;;34.55;22.09
72066;BME280;59939;52.516;13.420;2022-08-14T14:32:36;99841.13;;;34.75;22.12
72066;BME280;59939;52.516;13.420;2022-08-14T14:35:43;99836.72;;;36.22;20.28
72066;BME280;59939;52.516;13.420;2022-08-14T14:38:53;99841.41;;;36.25;19.82
72066;BME280;59939;52.516;13.420;2022-08-14T14:42:01;99836.06;;;37.07;18.16
72066;BME280;59939;52.516;13.420;2022-08-14T14:45:10;99819.72;;;37.89;17.13
72066;BME280;59939;52.516;13.420;2022-08-14T14:48:17;99828.59;;;34.52;19.66
72066;BME280;59939;52.516;13.420;2022-08-14T14:51:22;99818.75;;;35.44;19.35
72066;BME280;59939;52.516;13.420;2022-08-14T14:54:26;99820.59;;;35.26;19.28
72066;BME280;59939;52.516;13.420;2022-08-14T14:57:33;99818.09;;;35.14;19.65
72066;BME280;59939;52.516;13.420;2022-08-14T15:00:38;99816.69;;;36.16;18.75
72066;BME280;59939;52.516;13.420;2022-08-14T15:03:46;99819.78;;;35.67;19.30
72066;BME280;59939;52.516;13.420;2022-08-14T15:06:51;99817.81;;;35.99;18.53
72066;BME280;59939;52.516;13.420;2022-08-14T15:09:55;99810.53;;;36.98;17.71
72066;BME280;59939;52.516;13.420;2022-08-14T15:13:06;99812.41;;;37.77;17.04
72066;BME280;59939;52.516;13.420;2022-08-14T15:16:18;99801.06;;;36.43;17.84
72066;BME280;59939;52.516;13.420;2022-08-14T15:19:22;99794.84;;;36.13;18.27
72066;BME280;59939;52.516;13.420;2022-08-14T15:22:27;99811.28;;;35.06;19.57
72066;BME280;59939;52.516;13.420;2022-08-14T15:25:34;99799.66;;;35.76;19.23
72066;BME280;59939;52.516;13.420;2022-08-14T15:28:41;99804.13;;;35.36;19.46
72066;BME280;59939;52.516;13.420;2022-08-14T15:31:53;99800.97;;;35.14;19.54
72066;BME280;59939;52.516;13.420;2022-08-14T15:35:12;99800.28;;;36.11;18.88
72066;BME280;59939;52.516;13.420;2022-08-14T15:38:17;99793.47;;;36.03;18.99
72066;BME280;59939;52.516;13.420;2022-08-14T15:41:21;99787.00;;;35.16;19.77
72066;BME280;59939;52.516;13.420;2022-08-14T15:44:28;99792.88;;;34.86;19.72
72066;BME280;59939;52.516;13.420;2022-08-14T15:47:33;99791.47;;;33.58;21.30
72066;BME280;59939;52.516;13.420;2022-08-14T15:50:38;99795.66;;;34.66;20.29
72066;BME280;59939;52.516;13.420;2022-08-14T15:53:47;99790.44;;;34.00;20.97
72066;BME280;59939;52.516;13.420;2022-08-14T15:56:58;99787.28;;;34.13;21.00
72066;BME280;59939;52.516;13.420;2022-08-14T16:00:05;99775.91;;;34.13;20.87
72066;BME280;59939;52.516;13.420;2022-08-14T16:03:30;99778.06;;;34.18;20.50
72066;BME280;59939;52.516;13.420;2022-08-14T16:06:36;99774.31;;;34.26;20.16
72066;BME280;59939;52.516;13.420;2022-08-14T16:09:40;99771.47;;;34.76;19.85
72066;BME280;59939;52.516;13.420;2022-08-14T16:12:45;99764.31;;;35.01;20.18
72066;BME280;59939;52.516;13.420;2022-08-14T16:15:57;99763.97;;;34.79;20.42
72066;BME280;59939;52.516;13.420;2022-08-14T16:19:03;99754.78;;;34.69;20.53
72066;BME280;59939;52.516;13.420;2022-08-14T16:22:11;99755.88;;;33.63;21.75